If you wish to contribute or participate in the discussions about articles you are invited to join SKYbrary as a registered user

 Actions

Cranfield Airport

From SKYbrary Wiki

EGTC
Airport
ICAO: EGTC
Summary
Name Cranfield Airport
Region Europe
Territory United Kingdom GB.gif
Location Cranfield, England
Serving Cranfield
Elevation 109.118 m
358 ft
358 ft109.118 m
Type medium airport
Coordinates 52° 4' 8.43" N, 0° 37' 11.22" W
Runways
Designator Length Width Surface ROPS
3/21 1799 m5,902.231 ft
46 m150.919 ft
ASP yes/yes
18/36 620 m2,034.121 ft
18 m59.055 ft
ASP /


METAR
Observation EGTC 081450Z 23018G28KT 9999 SCT035 09/05 Q0996
Station Cranfield
Date/Time 08 December 2019 14:50:00
Wind direction 230°
Wind speed 18 kts
Lowest cloud amount scattered clouds
Temperature 9°C
Dew point 5°C
Humidity 76%
QNH 996 hPa
Weather condition n/a

Maps

Terrain

Loading map...

Airport Layout

Loading map...


Accidents & Serious Incidents at or in vicinity of EGTC

None on SKYbrary